Latest Weather Observations for Eildon Fire Tower

IDV60801

Issued at 5:22 am EST Monday 6 April 2020 (issued every 10 minutes, with the page automatically refreshed every 10 minutes)

About weather observations | Map of weather stations | Latest weather observations for VIC | Other Formats
Station Details ID: 088164 Name: EILDON FIRE TOWER Lat: -37.21 Lon: 145.84 Height: 637.0 m
Data from the previous 72 hours. | See also: Recent months at Eildon Fire Tower
Date/Time
EST
Temp
°C
App
Temp
°C
Dew
Point
°C
Rel
Hum
%
Delta-T
°C
Wind Press
QNH
hPa
Press
MSL
hPa
Rain since
9am
mm
Dir  Spd
km/h
Gust
km/h
Spd
kts
Gust
kts
06/05:00am 6.6 2.3 5.4 92 0.6 WSW 17 22 9 12 - - 5.2
06/04:30am 7.0 2.4 5.8 92 0.6 WSW 19 22 10 12 - - 5.2
06/04:00am 7.3 3.5 5.9 91 0.7 WSW 15 20 8 11 - - 5.2
06/03:30am 7.6 4.3 6.2 91 0.7 WSW 13 19 7 10 - - 5.2
06/03:00am 8.0 4.3 6.3 89 0.8 WSW 15 22 8 12 - - 5.2
06/02:30am 8.1 3.8 6.9 92 0.6 WSW 19 24 10 13 - - 5.2
06/02:00am 8.2 4.6 6.8 91 0.7 WSW 15 20 8 11 - - 5.2
06/01:30am 8.3 4.4 6.9 91 0.7 WSW 17 22 9 12 - - 5.2
06/01:00am 8.3 4.0 6.9 91 0.7 WSW 19 26 10 14 - - 5.2
06/12:30am 8.4 3.9 7.0 91 0.7 WSW 20 26 11 14 - - 5.2
06/12:00am 8.5 3.6 7.1 91 0.7 WSW 22 28 12 15 - - 5.2
 
Date/Time
EST
Temp
°C
App
Temp
°C
Dew
Point
°C
Rel
Hum
%
Delta-T
°C
Wind Press
QNH
hPa
Press
MSL
hPa
Rain since
9am
mm
Dir  Spd
km/h
Gust
km/h
Spd
kts
Gust
kts
05/11:30pm 8.7 4.9 7.6 93 0.5 W 17 20 9 11 - - 5.2
05/11:00pm 9.0 6.0 7.6 91 0.7 WSW 13 22 7 12 - - 5.2
05/10:30pm 9.1 5.8 8.0 93 0.5 WSW 15 22 8 12 - - 5.2
05/10:00pm 9.4 3.7 8.5 94 0.5 WSW 28 37 15 20 - - 5.2
05/09:30pm 9.4 2.0 8.5 94 0.5 WSW 37 50 20 27 - - 5.2
05/09:00pm 10.1 3.9 9.3 95 0.4 WSW 32 41 17 22 - - 5.2
05/08:30pm 10.0 3.8 9.5 97 0.3 WSW 32 39 17 21 - - 5.2
05/08:00pm 10.5 4.5 10.0 97 0.3 WSW 32 44 17 24 - - 5.0
05/07:30pm 10.6 6.1 10.1 97 0.3 W 24 37 13 20 - - 4.6
05/07:00pm 10.9 7.3 10.4 97 0.3 W 20 32 11 17 - - 4.6
05/06:30pm 11.0 7.4 10.4 96 0.3 WSW 20 26 11 14 - - 3.2
05/06:13pm 11.2 6.1 10.6 96 0.3 WNW 28 50 15 27 - - 0.8
05/06:00pm 11.2 6.9 10.6 96 0.3 NW 24 41 13 22 - - 0.4
05/05:30pm 11.1 6.0 10.5 96 0.3 NW 28 46 15 25 - - 0.2
05/05:10pm 11.1 6.0 10.5 96 0.3 NW 28 56 15 30 - - 0.2
05/05:00pm 11.1 6.4 10.5 96 0.3 NW 26 48 14 26 - - 0.2
05/04:30pm 10.9 5.7 10.1 95 0.4 NW 28 54 15 29 - - 0.2
05/04:06pm 11.0 5.7 9.9 93 0.6 NW 28 46 15 25 - - 0.2
05/04:00pm 11.2 5.6 10.0 92 0.6 NNW 30 43 16 23 - - 0.0
05/03:30pm 11.6 6.4 10.2 91 0.7 NW 28 54 15 29 - - 0.0
05/03:00pm 11.2 5.8 9.6 90 0.8 NNW 28 56 15 30 - - 0.0
05/02:30pm 10.9 5.4 9.3 90 0.8 NW 28 50 15 27 - - 0.0
05/02:00pm 10.6 4.7 9.2 91 0.7 NW 30 52 16 28 - - 0.0
05/01:30pm 10.2 3.9 9.0 92 0.6 NW 32 56 17 30 - - 0.0
05/01:00pm 9.8 3.2 8.7 93 0.6 NW 33 54 18 29 - - 0.0
05/12:30pm 9.6 3.0 8.5 93 0.6 NW 33 57 18 31 - - 0.0
05/12:00pm 9.1 2.6 8.2 94 0.4 NNW 32 57 17 31 - - 0.0
05/11:49am 9.0 2.5 8.1 94 0.4 NW 32 57 17 31 - - 0.0
05/11:30am 8.5 2.3 7.9 96 0.3 NNW 30 44 16 24 - - 0.0
05/11:00am 8.1 2.2 7.3 95 0.4 NW 28 50 15 27 - - 0.0
05/10:34am 7.6 1.6 7.0 96 0.3 NNW 28 57 15 31 - - 0.0
05/10:30am 7.5 1.8 6.9 96 0.3 NNW 26 46 14 25 - - 0.0
05/10:00am 7.2 2.2 6.5 95 0.3 NNW 22 37 12 20 - - 0.0
05/09:46am 7.2 1.0 6.3 94 0.4 NW 28 48 15 26 - - 0.0
05/09:30am 7.0 0.0 6.1 94 0.4 NNW 32 48 17 26 - - 0.0
05/09:00am 6.6 0.3 5.9 95 0.3 NNW 28 50 15 27 - - 4.0
05/08:31am 6.4 -0.7 5.4 93 0.5 NNW 32 52 17 28 - - 4.0
05/08:30am 6.3 -0.5 5.3 93 0.5 NNW 30 43 16 23 - - 4.0
05/08:05am 6.0 -0.4 5.0 93 0.5 N 28 50 15 27 - - 4.0
05/08:00am 6.0 -0.1 5.0 93 0.5 N 26 43 14 23 - - 4.0
05/07:49am 6.0 -0.5 4.8 92 0.5 NNW 28 48 15 26 - - 4.0
05/07:30am 6.0 -0.2 4.5 90 0.7 NNW 26 35 14 19 - - 4.0
05/07:00am 5.8 -0.1 4.1 89 0.8 NNW 24 37 13 20 - - 4.0
05/06:30am 5.5 -0.8 3.8 89 0.7 N 26 39 14 21 - - 4.0
05/06:00am 5.3 0.3 3.6 89 0.7 NNW 19 35 10 19 - - 4.0
05/05:30am 5.0 1.2 3.8 92 0.5 N 13 24 7 13 - - 4.0
05/05:00am 5.1 1.3 3.8 91 0.6 N 13 22 7 12 - - 4.0
05/04:30am 5.1 0.9 3.8 91 0.6 N 15 24 8 13 - - 4.0
05/04:00am 5.2 1.7 3.4 88 0.8 NNW 11 19 6 10 - - 4.0
05/03:30am 5.2 0.9 3.5 89 0.7 NNW 15 24 8 13 - - 4.0
05/03:00am 5.1 1.6 3.6 90 0.7 N 11 17 6 9 - - 4.0
05/03:30am 5.5 0.8 3.2 85 1.0 NNW 17 28 9 15 - - 4.0
05/03:00am 5.5 1.4 2.2 79 1.4 NW 13 22 7 12 - - 4.0
05/02:30am 5.4 -0.1 2.1 79 1.4 WNW 20 28 11 15 - - 4.0
05/02:00am 5.0 -1.2 2.2 82 1.2 W 24 33 13 18 - - 4.0
05/01:30am 5.2 -0.6 2.4 82 1.2 WNW 22 32 12 17 - - 4.0
05/01:00am 5.2 -0.2 2.6 83 1.1 W 20 33 11 18 - - 4.0
05/12:30am 5.2 -0.9 2.6 83 1.1 W 24 35 13 19 - - 4.0
05/12:00am 5.2 0.3 2.2 81 1.3 WNW 17 22 9 12 - - 4.0
 
Date/Time
EST
Temp
°C
App
Temp
°C
Dew
Point
°C
Rel
Hum
%
Delta-T
°C
Wind Press
QNH
hPa
Press
MSL
hPa
Rain since
9am
mm
Dir  Spd
km/h
Gust
km/h
Spd
kts
Gust
kts
04/11:30pm 5.2 0.4 2.6 83 1.1 WNW 17 19 9 10 - - 4.0
04/11:00pm 5.0 0.7 3.0 87 0.9 W 15 19 8 10 - - 4.0
04/10:30pm 4.7 0.8 3.5 92 0.5 W 13 15 7 8 - - 4.0
04/10:00pm 5.0 -0.1 3.0 87 0.9 WSW 19 24 10 13 - - 4.0
04/09:30pm 5.4 -2.1 3.3 86 0.9 WSW 32 43 17 23 - - 4.0
04/09:00pm 4.8 -1.0 4.2 96 0.3 WSW 24 28 13 15 - - 4.0
04/08:30pm 4.6 -0.3 4.0 96 0.3 W 19 24 10 13 - - 4.0
04/08:00pm 4.5 -1.0 3.8 95 0.3 WSW 22 32 12 17 - - 3.8
04/07:30pm 4.4 -5.2 3.4 93 0.4 WSW 43 61 23 33 - - 3.4
04/07:21pm 5.5 -2.7 2.8 83 1.2 W 35 69 19 37 - - 3.2
04/07:20pm 6.1 -1.7 3.1 81 1.3 W 33 69 18 37 - - 3.2
04/07:18pm 7.4 1.0 5.2 86 1.0 WNW 28 52 15 28 - - 3.2
04/07:00pm 7.0 2.9 6.1 94 0.4 WNW 17 24 9 13 - - 3.2
04/06:30pm 6.9 2.4 6.3 96 0.3 WSW 19 26 10 14 - - 3.2
04/06:00pm 6.6 3.3 6.2 97 0.2 W 13 20 7 11 - - 3.2
04/05:30pm 6.4 1.9 6.0 97 0.2 W 19 26 10 14 - - 3.2
04/05:00pm 6.0 -0.7 5.4 96 0.3 W 30 39 16 21 - - 3.2
04/04:54pm 6.0 -1.3 5.4 96 0.3 WSW 33 52 18 28 - - 3.2
04/04:45pm 5.6 -4.7 4.9 95 0.3 WSW 48 74 26 40 - - 3.0
04/04:33pm 8.4 1.0 5.2 80 1.5 W 33 80 18 43 - - 2.0
04/04:32pm 9.5 2.9 6.0 79 1.7 W 30 80 16 43 - - 2.0
04/04:31pm 9.6 3.4 6.0 78 1.7 WNW 28 50 15 27 - - 2.0
04/04:30pm 9.7 3.9 6.2 79 1.7 WNW 26 48 14 26 - - 2.0
04/04:11pm 10.3 3.9 5.3 71 2.4 WNW 28 48 15 26 - - 2.0
04/04:00pm 10.2 5.0 5.4 72 2.3 W 22 39 12 21 - - 2.0
04/03:30pm 9.2 2.6 6.1 81 1.5 WSW 30 39 16 21 - - 2.0
04/03:11pm 7.8 -2.0 5.4 85 1.1 W 46 74 25 40 - - 2.0
04/03:06pm 7.5 -2.8 4.8 83 1.2 W 48 74 26 40 - - 2.0
04/03:03pm 8.4 -1.0 4.6 77 1.7 W 43 74 23 40 - - 2.0
04/03:00pm 10.0 2.4 5.8 75 2.0 W 35 56 19 30 - - 2.0
04/02:48pm 11.3 4.8 6.6 73 2.3 W 30 50 16 27 - - 2.0
04/02:30pm 10.7 3.2 7.8 82 1.5 W 37 50 20 27 - - 2.0
04/02:14pm 9.8 4.3 9.3 97 0.3 W 28 46 15 25 - - 2.0
04/02:00pm 9.3 5.4 8.8 97 0.3 W 19 26 10 14 - - 2.0
04/01:30pm 8.7 4.5 8.3 97 0.2 W 20 28 11 15 - - 1.8
04/01:00pm 8.1 1.8 7.5 96 0.3 WSW 30 37 16 20 - - 1.6
04/12:37pm 8.4 0.4 7.3 93 0.5 WSW 39 57 21 31 - - 0.6
04/12:30pm 9.0 1.0 7.3 89 0.8 WSW 39 54 21 29 - - 0.2
04/12:24pm 10.0 3.5 8.1 88 1.0 W 32 54 17 29 - - 0.2
04/12:00pm 10.0 3.7 8.8 92 0.6 W 32 43 17 23 - - 0.2
04/11:30am 10.2 2.0 8.3 88 1.0 W 41 54 22 29 - - 0.2
04/11:08am 10.4 3.1 8.8 90 0.8 W 37 56 20 30 - - 0.2
04/11:00am 9.9 2.5 8.5 91 0.7 W 37 50 20 27 - - 0.2
04/10:42am 9.5 3.6 9.0 97 0.3 W 30 50 16 27 - - 0.2
04/10:30am 9.4 2.9 9.1 98 0.2 W 33 46 18 25 - - 0.2
04/10:00am 8.9 2.9 8.6 98 0.2 W 30 41 16 22 - - 0.2
04/09:30am 8.9 3.6 8.6 98 0.2 W 26 37 14 20 - - 0.2
04/09:00am 8.8 3.5 8.5 98 0.2 W 26 39 14 21 - - 10.2
04/08:30am 9.1 4.3 8.8 98 0.2 W 24 35 13 19 - - 9.8
04/08:00am 9.1 4.3 8.8 98 0.2 W 24 32 13 17 - - 9.6
04/07:30am 9.2 4.7 8.7 97 0.3 W 22 28 12 15 - - 9.6
04/07:00am 9.4 5.0 8.9 97 0.3 W 22 33 12 18 - - 9.6
04/06:30am 9.5 6.4 9.0 97 0.3 W 15 22 8 12 - - 9.6
04/06:00am 9.6 6.2 9.1 97 0.3 WSW 17 20 9 11 - - 9.6
04/05:30am 9.5 6.8 9.0 97 0.3 W 13 22 7 12 - - 9.4
04/05:00am 9.7 7.8 9.2 97 0.3 SSW 9 13 5 7 - - 8.8
04/04:30am 9.4 4.2 8.9 97 0.3 SW 26 37 14 20 - - 7.8
04/04:00am 9.5 3.2 9.0 97 0.3 SW 32 43 17 23 - - 6.6
04/03:33am 9.7 2.1 9.2 97 0.3 WSW 39 57 21 31 - - 4.4
04/03:30am 9.7 1.8 9.2 97 0.3 WSW 41 57 22 31 - - 4.2
04/03:02am 11.6 6.3 9.9 89 0.9 N 28 57 15 31 - - 1.6
04/03:01am 12.8 8.7 11.5 92 0.7 N 24 54 13 29 - - 1.4
04/03:00am 13.0 9.0 11.7 92 0.7 NNE 24 37 13 20 - - 0.8
04/02:30am 13.1 9.7 11.3 89 1.0 NE 20 46 11 25 - - 0.4
04/02:00am 13.2 9.4 11.3 88 1.0 NNE 22 35 12 19 - - 0.2
04/01:30am 13.8 8.8 11.1 84 1.5 NNE 28 44 15 24 - - 0.2
04/01:00am 13.9 8.9 11.1 83 1.5 NNE 28 46 15 25 - - 0.2
04/12:30am 13.8 8.5 11.3 85 1.4 NNE 30 50 16 27 - - 0.2
04/12:25am 13.8 8.8 11.1 84 1.5 NE 28 50 15 27 - - 0.2
04/12:00am 13.8 9.2 11.1 84 1.5 NNE 26 43 14 23 - - 0.2
 
Date/Time
EST
Temp
°C
App
Temp
°C
Dew
Point
°C
Rel
Hum
%
Delta-T
°C
Wind Press
QNH
hPa
Press
MSL
hPa
Rain since
9am
mm
Dir  Spd
km/h
Gust
km/h
Spd
kts
Gust
kts
03/11:30pm 13.6 10.1 11.0 84 1.4 NE 20 32 11 17 - - 0.2
03/11:00pm 13.9 10.0 10.9 82 1.6 NE 22 35 12 19 - - 0.2
03/10:30pm 14.1 9.8 10.7 80 1.8 NE 24 35 13 19 - - 0.2
03/10:00pm 14.4 11.0 10.6 78 2.1 NE 19 28 10 15 - - 0.2
03/09:30pm 14.5 10.9 10.5 77 2.2 NE 20 30 11 16 - - 0.2
03/09:00pm 14.6 11.5 10.4 76 2.3 NE 17 28 9 15 - - 0.0
03/08:30pm 14.8 11.3 10.2 74 2.5 NNE 19 28 10 15 - - 0.0
03/08:00pm 14.9 12.1 9.9 72 2.7 NNE 15 26 8 14 - - 0.0
03/07:30pm 15.0 11.8 9.8 71 2.8 NE 17 30 9 16 - - 0.0
03/07:00pm 15.3 11.5 9.7 69 3.0 NNE 20 39 11 21 - - 0.0
03/06:30pm 15.4 11.1 9.3 67 3.2 NE 22 37 12 20 - - 0.0
03/06:00pm 15.8 11.0 10.3 70 3.0 NE 26 46 14 25 - - 0.0
03/05:30pm 15.9 13.1 11.3 74 2.6 NE 17 32 9 17 - - 0.0
03/05:00pm 17.5 14.9 12.0 70 3.1 NE 17 30 9 16 - - 0.0
03/04:30pm 17.7 14.1 11.9 69 3.3 NE 22 39 12 21 - - 0.0
03/04:00pm 17.1 13.1 11.8 71 3.0 NE 24 33 13 18 - - 0.0
03/03:30pm 16.4 13.7 11.8 74 2.6 NE 17 26 9 14 - - 0.0
03/03:00pm 16.2 14.2 11.4 73 2.7 NE 13 22 7 12 - - 0.0
03/02:30pm 16.9 14.2 11.6 71 3.0 NE 17 28 9 15 - - 0.0
03/02:00pm 17.1 14.4 12.8 76 2.5 NE 19 28 10 15 - - 0.0
03/01:30pm 17.0 15.4 12.7 76 2.5 NE 13 22 7 12 - - 0.0
03/01:00pm 16.7 13.9 13.2 80 2.0 NE 20 30 11 16 - - 0.0
03/12:30pm 15.4 13.9 13.2 87 1.3 NE 13 19 7 10 - - 0.0
03/12:00pm 14.4 13.3 13.1 92 0.7 NE 11 20 6 11 - - 0.0
03/11:30am 14.4 13.9 13.9 97 0.3 NNE 9 15 5 8 - - 0.0
03/11:00am 13.2 12.4 12.9 98 0.2 NE 9 26 5 14 - - 0.0
03/10:30am 13.2 10.5 12.9 98 0.2 NE 19 28 10 15 - - 0.0
03/10:00am 12.8 10.0 12.5 98 0.2 NE 19 22 10 12 - - 0.0
03/09:30am 12.8 10.7 12.5 98 0.2 NE 15 19 8 10 - - 0.0
03/09:00am 12.8 11.5 12.5 98 0.2 NE 11 15 6 8 - - 6.6
03/08:30am 12.7 11.7 12.4 98 0.2 NE 9 13 5 7 - - 6.6
03/08:00am 12.6 12.2 12.3 98 0.2 NE 6 11 3 6 - - 6.6
03/07:30am 12.1 11.3 11.8 98 0.2 N 7 11 4 6 - - 6.6
03/07:00am 12.4 11.9 12.1 98 0.2 N 6 11 3 6 - - 6.6
03/06:30am 12.3 11.6 12.0 98 0.2 NW 7 11 4 6 - - 6.6

Other formats

Comma delimited format used in spreadsheet applications
http://www.bom.gov.au/fwo/IDV60801/IDV60801.94881.axf

JavaScript Object Notation format (JSON) in row-major order
http://www.bom.gov.au/fwo/IDV60801/IDV60801.94881.json

Data quality

Most of these data are generated automatically and are frequently updated. Quality checks on data are not normally performed. It is possible for incorrect values to appear. Refer to information at About Latest Weather Observations and please check the disclaimer before using these data.